createdAt,value
2022-08-17T00:01:27.611Z,17.35
2022-08-17T00:03:54.709Z,17.32
2022-08-17T00:06:25.831Z,17.31
2022-08-17T00:08:58.760Z,17.30
2022-08-17T00:11:32.568Z,17.30
2022-08-17T00:14:09.376Z,17.32
2022-08-17T00:16:56.169Z,17.28
2022-08-17T00:19:25.298Z,17.28
2022-08-17T00:22:33.170Z,17.27
2022-08-17T00:24:42.409Z,17.25
2022-08-17T00:27:08.818Z,17.21
2022-08-17T00:29:35.221Z,17.20
2022-08-17T00:33:11.652Z,17.17
2022-08-17T00:34:48.971Z,17.17
2022-08-17T00:37:15.515Z,17.15
2022-08-17T00:39:42.011Z,17.10
2022-08-17T00:42:19.766Z,17.07
2022-08-17T00:44:46.614Z,17.03
2022-08-17T00:47:13.844Z,16.97
2022-08-17T00:49:40.338Z,16.97
2022-08-17T00:52:16.499Z,16.95
2022-08-17T00:54:46.911Z,16.94
2022-08-17T00:57:18.853Z,16.91
2022-08-17T00:59:56.015Z,16.87
2022-08-17T01:02:34.947Z,16.85
2022-08-17T01:05:13.828Z,16.84
2022-08-17T01:07:41.324Z,16.84
2022-08-17T01:10:59.778Z,16.81
2022-08-17T01:12:58.007Z,16.80
2022-08-17T01:15:24.486Z,16.77
2022-08-17T01:17:50.961Z,16.74
2022-08-17T01:20:17.434Z,16.71
2022-08-17T01:22:43.948Z,16.73
2022-08-17T01:25:12.592Z,16.69
2022-08-17T01:27:39.137Z,16.67
2022-08-17T01:30:57.314Z,16.63
2022-08-17T01:32:56.532Z,16.62
2022-08-17T01:35:22.896Z,16.57
2022-08-17T01:37:49.563Z,16.56
2022-08-17T01:40:25.483Z,16.52
2022-08-17T01:42:56.588Z,16.50
2022-08-17T01:45:28.537Z,16.49
2022-08-17T01:47:55.353Z,16.48
2022-08-17T01:50:26.447Z,16.49
2022-08-17T01:52:58.188Z,16.48
2022-08-17T01:55:33.463Z,16.48
2022-08-17T01:58:00.017Z,16.46
2022-08-17T02:01:00.250Z,16.43
2022-08-17T02:03:15.762Z,16.40
2022-08-17T02:05:42.136Z,16.42
2022-08-17T02:08:08.581Z,16.38
2022-08-17T02:10:47.754Z,16.34
2022-08-17T02:13:14.815Z,16.33
2022-08-17T02:15:41.662Z,16.30
2022-08-17T02:18:09.804Z,16.28
2022-08-17T02:20:41.951Z,16.28
2022-08-17T02:23:11.838Z,16.25
2022-08-17T02:25:39.789Z,16.23
2022-08-17T02:28:06.319Z,16.21
2022-08-17T02:30:58.967Z,16.21
2022-08-17T02:33:19.921Z,16.22
2022-08-17T02:35:46.890Z,16.23
2022-08-17T02:38:13.308Z,16.21
2022-08-17T02:40:40.471Z,16.22
2022-08-17T02:43:08.785Z,16.22
2022-08-17T02:45:36.230Z,16.18
2022-08-17T02:48:03.126Z,16.16
2022-08-17T02:50:29.556Z,16.13
2022-08-17T02:53:02.274Z,16.13
2022-08-17T02:55:35.110Z,16.13
2022-08-17T02:58:03.554Z,16.11
2022-08-17T03:00:35.797Z,16.11
2022-08-17T03:03:05.871Z,16.08
2022-08-17T03:05:34.279Z,16.09
2022-08-17T03:08:00.692Z,16.09
2022-08-17T03:10:28.076Z,16.08
2022-08-17T03:12:54.563Z,16.06
2022-08-17T03:15:24.961Z,16.06
2022-08-17T03:17:52.340Z,16.04
2022-08-17T03:20:20.030Z,16.06
2022-08-17T03:22:53.646Z,16.05
2022-08-17T03:25:44.212Z,16.00
2022-08-17T03:28:12.013Z,16.00
2022-08-17T03:30:39.885Z,16.01
2022-08-17T03:33:09.890Z,16.01
2022-08-17T03:35:37.908Z,15.98
2022-08-17T03:38:04.998Z,15.94
2022-08-17T03:40:34.392Z,15.94
2022-08-17T03:43:20.799Z,15.91
2022-08-17T03:46:05.884Z,15.85
2022-08-17T03:48:56.101Z,15.84
2022-08-17T03:51:42.742Z,15.82
2022-08-17T03:54:29.591Z,15.78
2022-08-17T03:57:03.643Z,15.81
2022-08-17T03:59:31.370Z,15.80
2022-08-17T04:02:03.668Z,15.80
2022-08-17T04:04:30.435Z,15.77
2022-08-17T04:06:56.845Z,15.78
2022-08-17T04:09:23.269Z,15.77
2022-08-17T04:11:49.717Z,15.77
2022-08-17T04:14:16.234Z,15.75
2022-08-17T04:16:42.775Z,15.77
2022-08-17T04:19:09.162Z,15.78
2022-08-17T04:21:35.805Z,15.81
2022-08-17T04:24:02.785Z,15.80
2022-08-17T04:26:53.484Z,15.85
2022-08-17T04:29:17.104Z,15.85
2022-08-17T04:31:44.061Z,15.92
2022-08-17T04:34:11.726Z,15.98
2022-08-17T04:36:38.202Z,16.01
2022-08-17T04:39:04.664Z,16.08
2022-08-17T04:41:49.649Z,16.09
2022-08-17T04:44:37.125Z,16.16
2022-08-17T04:47:02.872Z,16.22
2022-08-17T04:49:29.419Z,16.28
2022-08-17T04:51:59.032Z,16.38
2022-08-17T04:54:29.084Z,16.48
2022-08-17T04:56:55.475Z,16.56
2022-08-17T04:59:22.562Z,16.64
2022-08-17T05:01:51.539Z,16.71
2022-08-17T05:04:33.789Z,16.80
2022-08-17T05:07:01.901Z,16.87
2022-08-17T05:09:28.954Z,16.95
2022-08-17T05:11:55.378Z,17.04
2022-08-17T05:14:22.759Z,17.11
2022-08-17T05:16:59.674Z,17.21
2022-08-17T05:19:27.534Z,17.32
2022-08-17T05:21:53.995Z,17.41
2022-08-17T05:24:39.852Z,17.52
2022-08-17T05:27:06.957Z,17.62
2022-08-17T05:29:34.291Z,17.73
2022-08-17T05:32:37.412Z,17.79
2022-08-17T05:35:00.719Z,17.87
2022-08-17T05:37:27.274Z,17.99
2022-08-17T05:39:54.213Z,18.14
2022-08-17T05:42:20.859Z,18.31
2022-08-17T05:44:47.314Z,18.51
2022-08-17T05:47:13.795Z,18.84
2022-08-17T05:49:40.244Z,19.33
2022-08-17T05:52:20.429Z,20.66
2022-08-17T05:55:30.198Z,22.68
2022-08-17T05:58:02.589Z,24.41
2022-08-17T06:00:47.896Z,25.30
2022-08-17T06:03:33.109Z,26.08
2022-08-17T06:06:39.751Z,27.00
2022-08-17T06:09:12.110Z,27.70
2022-08-17T06:11:38.466Z,28.09
2022-08-17T06:14:07.848Z,28.26
2022-08-17T06:16:38.727Z,27.99
2022-08-17T06:19:25.700Z,27.63
2022-08-17T06:21:54.805Z,27.54
2022-08-17T06:24:39.293Z,27.81
2022-08-17T06:27:19.571Z,28.21
2022-08-17T06:30:20.194Z,28.78
2022-08-17T06:32:50.190Z,29.40
2022-08-17T06:35:30.050Z,29.72
2022-08-17T06:38:06.277Z,30.31
2022-08-17T06:40:45.486Z,30.75
2022-08-17T06:43:26.119Z,31.24
2022-08-17T06:46:12.753Z,31.75
2022-08-17T06:49:17.024Z,32.04
2022-08-17T06:51:50.509Z,32.29
2022-08-17T06:54:27.136Z,32.44
2022-08-17T06:56:59.375Z,32.63
2022-08-17T06:59:55.134Z,32.81
2022-08-17T07:02:52.458Z,32.88
2022-08-17T07:05:32.629Z,33.00
2022-08-17T07:08:16.594Z,33.38
2022-08-17T07:10:57.441Z,33.86
2022-08-17T07:13:30.288Z,34.06
2022-08-17T07:16:14.997Z,34.15
2022-08-17T07:18:41.881Z,34.30
2022-08-17T07:21:19.106Z,34.02
2022-08-17T07:24:06.644Z,34.27
2022-08-17T07:26:33.261Z,34.70
2022-08-17T07:29:00.606Z,34.85
2022-08-17T07:31:30.506Z,35.41
2022-08-17T07:34:14.384Z,35.47
2022-08-17T07:36:43.548Z,35.45
2022-08-17T07:39:10.896Z,35.63
2022-08-17T07:41:57.585Z,35.90
2022-08-17T07:44:26.426Z,35.94
2022-08-17T07:47:12.684Z,36.17
2022-08-17T07:49:42.735Z,36.43
2022-08-17T07:52:50.917Z,36.45
2022-08-17T07:55:29.363Z,36.03
2022-08-17T07:57:58.428Z,36.01
2022-08-17T08:00:32.501Z,36.43
2022-08-17T08:03:11.219Z,36.86
2022-08-17T08:05:51.375Z,37.08
2022-08-17T08:08:52.801Z,37.25
2022-08-17T08:11:35.225Z,38.12
2022-08-17T08:14:28.266Z,38.42
2022-08-17T08:16:59.532Z,38.31
2022-08-17T08:19:28.140Z,38.35
2022-08-17T08:22:27.191Z,38.52
2022-08-17T08:25:32.741Z,38.08
2022-08-17T08:28:14.852Z,38.45
2022-08-17T08:30:47.706Z,38.83
2022-08-17T08:33:45.560Z,39.11
2022-08-17T08:37:13.075Z,39.06
2022-08-17T08:39:23.259Z,39.48
2022-08-17T08:41:55.006Z,39.61
2022-08-17T08:45:04.145Z,40.12
2022-08-17T08:47:53.687Z,40.66
2022-08-17T08:50:37.280Z,40.94
2022-08-17T08:53:09.300Z,40.56
2022-08-17T08:55:54.697Z,40.06
2022-08-17T08:58:41.331Z,40.43
2022-08-17T09:01:20.941Z,41.23
2022-08-17T09:04:24.782Z,42.19
2022-08-17T09:07:08.527Z,41.69
2022-08-17T09:09:43.079Z,42.13
2022-08-17T09:12:36.334Z,42.32
2022-08-17T09:15:20.184Z,41.69
2022-08-17T09:19:00.512Z,42.33
2022-08-17T09:20:59.952Z,43.04
2022-08-17T09:23:26.559Z,42.63
2022-08-17T09:26:22.382Z,43.15
2022-08-17T09:28:55.748Z,43.54
2022-08-17T09:31:32.700Z,42.91
2022-08-17T09:34:03.479Z,42.86
2022-08-17T09:36:36.199Z,43.01
2022-08-17T09:39:13.290Z,43.33
2022-08-17T09:41:57.799Z,43.16
2022-08-17T09:44:47.097Z,43.04
2022-08-17T09:47:28.395Z,43.23
2022-08-17T09:50:05.892Z,42.86
2022-08-17T09:52:32.476Z,42.98
2022-08-17T09:55:00.992Z,42.85
2022-08-17T09:58:07.865Z,42.43
2022-08-17T10:00:36.845Z,42.44
2022-08-17T10:03:29.931Z,40.68
2022-08-17T10:06:22.172Z,38.92
2022-08-17T10:09:08.542Z,39.34
2022-08-17T10:12:09.280Z,39.74
2022-08-17T10:14:44.145Z,40.46
2022-08-17T10:17:32.415Z,40.53
2022-08-17T10:20:20.600Z,40.52
2022-08-17T10:23:14.733Z,40.50
2022-08-17T10:26:05.512Z,41.39
2022-08-17T10:28:49.542Z,41.82
2022-08-17T10:31:36.397Z,41.52
2022-08-17T10:34:27.073Z,42.03
2022-08-17T10:36:58.121Z,41.31
2022-08-17T10:39:52.471Z,39.81
2022-08-17T10:42:35.256Z,40.82
2022-08-17T10:45:06.828Z,41.82
2022-08-17T10:48:06.060Z,42.79
2022-08-17T10:51:00.432Z,42.85
2022-08-17T10:53:32.937Z,43.02
2022-08-17T10:56:49.511Z,42.44
2022-08-17T10:59:42.140Z,42.61
2022-08-17T11:02:25.275Z,42.43
2022-08-17T11:05:00.857Z,40.91
2022-08-17T11:07:51.187Z,40.49
2022-08-17T11:10:42.663Z,40.62
2022-08-17T11:13:14.862Z,40.80
2022-08-17T11:16:32.545Z,41.23
2022-08-17T11:19:44.364Z,42.16
2022-08-17T11:22:35.572Z,42.70
2022-08-17T11:25:18.912Z,43.63
2022-08-17T11:27:53.431Z,43.46
2022-08-17T11:30:48.594Z,44.10
2022-08-17T11:33:38.117Z,43.62
2022-08-17T11:36:45.764Z,43.49
2022-08-17T11:39:43.923Z,43.84
2022-08-17T11:42:37.466Z,44.30
2022-08-17T11:45:41.096Z,44.13
2022-08-17T11:48:38.816Z,44.23
2022-08-17T11:51:33.743Z,44.51
2022-08-17T11:54:31.047Z,44.58
2022-08-17T11:56:50.987Z,44.28
2022-08-17T11:59:32.634Z,44.04
2022-08-17T12:02:31.613Z,44.11
2022-08-17T12:05:17.224Z,43.86
2022-08-17T12:07:48.781Z,43.89
2022-08-17T12:10:19.263Z,43.53
2022-08-17T12:12:56.170Z,43.72
2022-08-17T12:15:31.229Z,43.45
2022-08-17T12:17:58.246Z,43.73
2022-08-17T12:20:35.392Z,43.35
2022-08-17T12:23:25.531Z,43.49
2022-08-17T12:26:17.245Z,42.30
2022-08-17T12:28:47.335Z,39.99
2022-08-17T12:31:20.337Z,40.45
2022-08-17T12:33:47.899Z,40.04
2022-08-17T12:36:18.561Z,39.84
2022-08-17T12:38:57.181Z,40.49
2022-08-17T12:41:34.634Z,41.23
2022-08-17T12:44:15.366Z,41.10
2022-08-17T12:46:46.346Z,39.98
2022-08-17T12:49:24.587Z,39.85
2022-08-17T12:51:55.977Z,39.13
2022-08-17T12:54:31.371Z,38.33
2022-08-17T12:57:05.418Z,37.44
2022-08-17T12:59:33.089Z,36.96
2022-08-17T13:02:00.559Z,36.88
2022-08-17T13:04:29.631Z,36.78
2022-08-17T13:06:59.721Z,36.21
2022-08-17T13:09:35.363Z,36.23
2022-08-17T13:12:06.841Z,35.73
2022-08-17T13:14:34.193Z,35.52
2022-08-17T13:17:02.268Z,35.49
2022-08-17T13:19:40.570Z,35.66
2022-08-17T13:22:11.617Z,36.08
2022-08-17T13:24:38.759Z,36.28
2022-08-17T13:27:09.564Z,36.00
2022-08-17T13:29:51.358Z,35.74
2022-08-17T13:32:23.075Z,35.72
2022-08-17T13:35:12.415Z,35.50
2022-08-17T13:38:04.393Z,35.59
2022-08-17T13:40:44.989Z,35.69
2022-08-17T13:43:11.907Z,35.43
2022-08-17T13:45:45.980Z,35.19
2022-08-17T13:48:27.372Z,34.91
2022-08-17T13:50:56.824Z,34.72
2022-08-17T13:53:40.139Z,34.41
2022-08-17T13:56:33.221Z,34.10
2022-08-17T13:59:05.103Z,34.05
2022-08-17T14:01:53.934Z,34.05
2022-08-17T14:04:29.906Z,34.05
2022-08-17T14:07:08.509Z,34.24
2022-08-17T14:09:37.806Z,34.09
2022-08-17T14:12:08.802Z,34.02
2022-08-17T14:14:35.280Z,34.06
2022-08-17T14:17:01.968Z,34.03
2022-08-17T14:19:28.425Z,33.90
2022-08-17T14:21:58.804Z,33.76
2022-08-17T14:24:35.074Z,33.59
2022-08-17T14:27:04.618Z,33.34
2022-08-17T14:29:34.209Z,33.22
2022-08-17T14:32:05.289Z,33.03
2022-08-17T14:34:31.684Z,32.88
2022-08-17T14:36:58.609Z,32.98
2022-08-17T14:39:25.241Z,33.12
2022-08-17T14:41:52.936Z,33.28
2022-08-17T14:44:19.389Z,33.38
2022-08-17T14:46:45.829Z,33.39
2022-08-17T14:49:13.114Z,33.28
2022-08-17T14:51:43.511Z,33.18
2022-08-17T14:54:10.834Z,33.06
2022-08-17T14:56:38.567Z,33.03
2022-08-17T14:59:04.999Z,32.92
2022-08-17T15:01:31.630Z,32.91
2022-08-17T15:03:58.064Z,32.76
2022-08-17T15:06:24.757Z,32.61
2022-08-17T15:08:51.458Z,32.50
2022-08-17T15:11:18.034Z,32.40
2022-08-17T15:13:52.189Z,32.28
2022-08-17T15:16:19.989Z,32.18
2022-08-17T15:18:46.404Z,32.08
2022-08-17T15:21:14.778Z,32.04
2022-08-17T15:23:41.222Z,31.99
2022-08-17T15:26:10.865Z,31.86
2022-08-17T15:28:37.769Z,31.85
2022-08-17T15:31:05.694Z,31.78
2022-08-17T15:33:32.308Z,31.74
2022-08-17T15:36:06.365Z,31.64
2022-08-17T15:38:36.568Z,31.71
2022-08-17T15:41:03.532Z,31.77
2022-08-17T15:43:33.744Z,31.81
2022-08-17T15:46:07.789Z,31.78
2022-08-17T15:48:41.643Z,31.64
2022-08-17T15:51:15.737Z,31.57
2022-08-17T15:53:44.840Z,31.60
2022-08-17T15:56:13.582Z,31.51
2022-08-17T15:58:42.208Z,31.44
2022-08-17T16:01:14.985Z,31.44
2022-08-17T16:04:05.111Z,31.38
2022-08-17T16:06:33.299Z,31.23
2022-08-17T16:09:00.381Z,31.24
2022-08-17T16:11:26.980Z,31.26
2022-08-17T16:13:55.057Z,31.30
2022-08-17T16:16:23.630Z,31.33
2022-08-17T16:18:53.647Z,31.26
2022-08-17T16:21:25.859Z,31.02
2022-08-17T16:23:58.730Z,30.78
2022-08-17T16:26:26.276Z,30.46
2022-08-17T16:28:53.439Z,30.21
2022-08-17T16:31:20.093Z,29.98
2022-08-17T16:34:15.599Z,29.85
2022-08-17T16:36:34.377Z,29.70
2022-08-17T16:39:01.359Z,29.62
2022-08-17T16:41:43.245Z,29.49
2022-08-17T16:44:09.792Z,29.43
2022-08-17T16:46:45.537Z,29.30
2022-08-17T16:49:27.593Z,29.19
2022-08-17T16:52:01.669Z,29.05
2022-08-17T16:54:28.097Z,28.98
2022-08-17T16:56:54.522Z,28.84
2022-08-17T16:59:30.795Z,28.71
2022-08-17T17:02:04.420Z,28.48
2022-08-17T17:04:34.985Z,28.33
2022-08-17T17:07:36.634Z,28.18
2022-08-17T17:10:11.028Z,27.96
2022-08-17T17:13:02.441Z,27.88
2022-08-17T17:15:29.996Z,27.73
2022-08-17T17:18:06.900Z,27.67
2022-08-17T17:20:47.650Z,27.56
2022-08-17T17:23:44.870Z,27.48
2022-08-17T17:26:17.185Z,27.41
2022-08-17T17:29:09.161Z,27.33
2022-08-17T17:31:43.549Z,27.30
2022-08-17T17:34:15.807Z,27.25
2022-08-17T17:36:53.824Z,27.20
2022-08-17T17:39:36.318Z,27.11
2022-08-17T17:42:08.214Z,27.04
2022-08-17T17:44:41.744Z,26.97
2022-08-17T17:47:08.192Z,26.87
2022-08-17T17:49:38.969Z,26.80
2022-08-17T17:52:32.755Z,26.72
2022-08-17T17:55:01.936Z,26.63
2022-08-17T17:58:06.262Z,26.52
2022-08-17T18:00:40.331Z,26.36
2022-08-17T18:03:50.402Z,26.26
2022-08-17T18:06:45.587Z,26.11
2022-08-17T18:09:27.702Z,25.95
2022-08-17T18:12:10.183Z,25.81
2022-08-17T18:14:58.430Z,25.71
2022-08-17T18:17:24.802Z,25.63
2022-08-17T18:19:55.284Z,25.53
2022-08-17T18:22:23.143Z,25.47
2022-08-17T18:24:58.711Z,25.37
2022-08-17T18:27:39.029Z,25.27
2022-08-17T18:30:14.591Z,25.23
2022-08-17T18:32:46.214Z,25.15
2022-08-17T18:35:14.124Z,25.05
2022-08-17T18:37:49.511Z,24.95
2022-08-17T18:40:23.315Z,24.85
2022-08-17T18:43:02.962Z,24.73
2022-08-17T18:45:41.043Z,24.66
2022-08-17T18:48:21.443Z,24.58
2022-08-17T18:50:48.070Z,24.51
2022-08-17T18:53:33.411Z,24.42
2022-08-17T18:56:37.074Z,24.31
2022-08-17T18:59:05.494Z,24.27
2022-08-17T19:01:46.992Z,24.21
2022-08-17T19:04:34.696Z,24.10
2022-08-17T19:07:16.556Z,24.06
2022-08-17T19:09:47.540Z,23.97
2022-08-17T19:12:27.623Z,23.90
2022-08-17T19:14:56.474Z,23.83
2022-08-17T19:17:30.126Z,23.71
2022-08-17T19:20:05.002Z,23.63
2022-08-17T19:23:05.106Z,23.53
2022-08-17T19:25:36.028Z,23.48
2022-08-17T19:28:21.853Z,23.39
2022-08-17T19:30:54.729Z,23.28
2022-08-17T19:33:21.273Z,23.23
2022-08-17T19:35:58.924Z,23.16
2022-08-17T19:38:36.684Z,23.15
2022-08-17T19:41:06.045Z,23.12
2022-08-17T19:43:41.717Z,23.11
2022-08-17T19:46:25.870Z,23.08
2022-08-17T19:49:05.154Z,23.04
2022-08-17T19:51:37.307Z,23.04
2022-08-17T19:54:07.060Z,23.05
2022-08-17T19:56:48.854Z,23.08
2022-08-17T19:59:48.927Z,23.09
2022-08-17T20:02:27.994Z,23.08
2022-08-17T20:04:58.860Z,23.07
2022-08-17T20:08:00.609Z,23.05
2022-08-17T20:10:47.353Z,23.08
2022-08-17T20:13:41.210Z,23.05
2022-08-17T20:16:09.022Z,23.05
2022-08-17T20:18:49.080Z,23.07
2022-08-17T20:21:39.095Z,23.04
2022-08-17T20:24:25.637Z,23.02
2022-08-17T20:26:59.637Z,22.99
2022-08-17T20:29:51.468Z,22.97
2022-08-17T20:32:24.019Z,22.94
2022-08-17T20:35:04.234Z,22.94
2022-08-17T20:37:33.949Z,22.92
2022-08-17T20:40:00.382Z,22.92
2022-08-17T20:42:27.799Z,22.95
2022-08-17T20:45:01.828Z,22.94
2022-08-17T20:48:15.173Z,22.95
2022-08-17T20:50:43.476Z,22.97
2022-08-17T20:53:13.470Z,22.97
2022-08-17T20:55:52.197Z,22.92
2022-08-17T20:58:25.213Z,22.92
2022-08-17T21:00:57.491Z,22.91
2022-08-17T21:03:23.995Z,22.90
2022-08-17T21:05:59.860Z,22.90
2022-08-17T21:08:45.715Z,22.87
2022-08-17T21:11:56.870Z,22.87
2022-08-17T21:14:57.926Z,22.90
2022-08-17T21:17:38.033Z,22.90
2022-08-17T21:20:14.364Z,22.87
2022-08-17T21:22:50.475Z,22.83
2022-08-17T21:25:48.180Z,22.79
2022-08-17T21:28:35.732Z,22.78
2022-08-17T21:31:08.493Z,22.81
2022-08-17T21:33:38.546Z,22.84
2022-08-17T21:36:11.550Z,22.83
2022-08-17T21:38:51.532Z,22.79
2022-08-17T21:41:27.320Z,22.75
2022-08-17T21:44:16.317Z,22.70
2022-08-17T21:46:46.602Z,22.67
2022-08-17T21:49:17.715Z,22.64
2022-08-17T21:51:53.746Z,22.63
2022-08-17T21:54:30.826Z,22.60
2022-08-17T21:57:00.100Z,22.60
2022-08-17T21:59:36.596Z,22.60
2022-08-17T22:02:09.066Z,22.58
2022-08-17T22:04:41.192Z,22.56
2022-08-17T22:07:13.189Z,22.54
2022-08-17T22:09:48.230Z,22.48
2022-08-17T22:12:18.855Z,22.48
2022-08-17T22:14:57.021Z,22.47
2022-08-17T22:17:27.632Z,22.47
2022-08-17T22:20:01.508Z,22.47
2022-08-17T22:22:55.655Z,22.46
2022-08-17T22:25:23.643Z,22.47
2022-08-17T22:27:54.217Z,22.43
2022-08-17T22:30:37.834Z,22.41
2022-08-17T22:33:33.536Z,22.37
2022-08-17T22:36:25.958Z,22.35
2022-08-17T22:39:00.905Z,22.35
2022-08-17T22:41:47.979Z,22.33
2022-08-17T22:44:29.518Z,22.30
2022-08-17T22:47:01.074Z,22.26
2022-08-17T22:49:34.114Z,22.23
2022-08-17T22:52:11.788Z,22.20
2022-08-17T22:54:56.947Z,22.23
2022-08-17T22:57:42.640Z,22.26
2022-08-17T23:00:37.702Z,22.21
2022-08-17T23:03:25.303Z,22.19
2022-08-17T23:06:10.407Z,22.20
2022-08-17T23:08:58.977Z,22.21
2022-08-17T23:11:43.031Z,22.21
2022-08-17T23:14:15.759Z,22.24
2022-08-17T23:16:42.838Z,22.29
2022-08-17T23:19:11.416Z,22.29
2022-08-17T23:21:38.477Z,22.32
2022-08-17T23:24:08.741Z,22.32
2022-08-17T23:26:40.699Z,22.33
2022-08-17T23:29:07.649Z,22.32
2022-08-17T23:31:38.504Z,22.35
2022-08-17T23:34:09.319Z,22.32
2022-08-17T23:36:36.011Z,22.26
2022-08-17T23:39:03.826Z,22.24
2022-08-17T23:41:38.331Z,22.19
2022-08-17T23:44:06.278Z,22.14
2022-08-17T23:46:32.861Z,22.13
2022-08-17T23:48:59.524Z,22.05
2022-08-17T23:51:34.026Z,22.06
2022-08-17T23:54:23.777Z,22.05
2022-08-17T23:56:50.818Z,21.99
2022-08-17T23:59:19.664Z,21.92
